sensor_id;sensor_type;location;lat;lon;timestamp;temperature;humidity
20566;DHT22;10441;50.884;12.064;2022-11-21T01:45:54;2.00;99.90
20566;DHT22;10441;50.884;12.064;2022-11-21T01:48:23;2.10;99.90
20566;DHT22;10441;50.884;12.064;2022-11-21T01:50:51;2.00;99.90
20566;DHT22;10441;50.884;12.064;2022-11-21T01:53:18;2.00;99.90
20566;DHT22;10441;50.884;12.064;2022-11-21T01:55:45;2.10;99.90
20566;DHT22;10441;50.884;12.064;2022-11-21T01:58:11;2.00;99.90
20566;DHT22;10441;50.884;12.064;2022-11-21T02:00:39;2.20;99.90
20566;DHT22;10441;50.884;12.064;2022-11-21T02:03:08;2.00;99.90
20566;DHT22;10441;50.884;12.064;2022-11-21T02:05:36;2.10;99.90
20566;DHT22;10441;50.884;12.064;2022-11-21T02:08:04;2.30;99.90
20566;DHT22;10441;50.884;12.064;2022-11-21T02:10:31;2.20;99.90
20566;DHT22;10441;50.884;12.064;2022-11-21T02:12:58;2.10;99.90
20566;DHT22;10441;50.884;12.064;2022-11-21T02:15:26;2.10;99.90
20566;DHT22;10441;50.884;12.064;2022-11-21T02:17:53;2.00;99.90
20566;DHT22;10441;50.884;12.064;2022-11-21T02:20:22;2.00;99.90
20566;DHT22;10441;50.884;12.064;2022-11-21T02:22:50;2.00;99.90
20566;DHT22;10441;50.884;12.064;2022-11-21T02:25:21;2.10;99.90
20566;DHT22;10441;50.884;12.064;2022-11-21T02:27:49;2.10;99.90
20566;DHT22;10441;50.884;12.064;2022-11-21T02:30:18;2.20;99.90
20566;DHT22;10441;50.884;12.064;2022-11-21T02:32:45;2.00;99.90
20566;DHT22;10441;50.884;12.064;2022-11-21T02:35:12;2.10;99.90
20566;DHT22;10441;50.884;12.064;2022-11-21T02:37:39;2.20;99.90
20566;DHT22;10441;50.884;12.064;2022-11-21T02:40:07;2.10;99.90
20566;DHT22;10441;50.884;12.064;2022-11-21T02:42:37;2.20;99.90
20566;DHT22;10441;50.884;12.064;2022-11-21T02:45:07;2.30;99.90
20566;DHT22;10441;50.884;12.064;2022-11-21T02:47:35;2.30;99.90
20566;DHT22;10441;50.884;12.064;2022-11-21T02:50:06;2.30;99.90
20566;DHT22;10441;50.884;12.064;2022-11-21T02:52:35;2.30;99.90
20566;DHT22;10441;50.884;12.064;2022-11-21T02:55:01;2.30;99.90
20566;DHT22;10441;50.884;12.064;2022-11-21T02:57:28;2.30;99.90
20566;DHT22;10441;50.884;12.064;2022-11-21T02:59:57;2.40;99.90
20566;DHT22;10441;50.884;12.064;2022-11-21T03:02:23;2.40;99.90
20566;DHT22;10441;50.884;12.064;2022-11-21T03:04:50;2.50;99.90
20566;DHT22;10441;50.884;12.064;2022-11-21T03:07:17;2.50;99.90
20566;DHT22;10441;50.884;12.064;2022-11-21T03:09:44;2.50;99.90
20566;DHT22;10441;50.884;12.064;2022-11-21T03:12:10;2.50;99.90
20566;DHT22;10441;50.884;12.064;2022-11-21T03:14:37;2.50;99.90
20566;DHT22;10441;50.884;12.064;2022-11-21T03:17:06;2.60;99.90
20566;DHT22;10441;50.884;12.064;2022-11-21T03:19:32;2.50;99.90
20566;DHT22;10441;50.884;12.064;2022-11-21T03:21:59;2.50;99.90
20566;DHT22;10441;50.884;12.064;2022-11-21T03:24:26;2.40;99.90
20566;DHT22;10441;50.884;12.064;2022-11-21T03:26:52;2.40;99.90
20566;DHT22;10441;50.884;12.064;2022-11-21T03:29:19;2.40;99.90
20566;DHT22;10441;50.884;12.064;2022-11-21T03:31:46;2.40;99.90
20566;DHT22;10441;50.884;12.064;2022-11-21T03:34:14;2.50;99.90
20566;DHT22;10441;50.884;12.064;2022-11-21T03:36:41;2.50;99.90
20566;DHT22;10441;50.884;12.064;2022-11-21T03:39:08;2.40;99.90
20566;DHT22;10441;50.884;12.064;2022-11-21T03:41:35;2.60;99.90
20566;DHT22;10441;50.884;12.064;2022-11-21T03:44:02;2.50;99.90
20566;DHT22;10441;50.884;12.064;2022-11-21T04:47:08;2.30;99.90
20566;DHT22;10441;50.884;12.064;2022-11-21T04:49:35;2.30;99.90
20566;DHT22;10441;50.884;12.064;2022-11-21T04:52:06;2.30;99.90
20566;DHT22;10441;50.884;12.064;2022-11-21T04:54:33;2.30;99.90
20566;DHT22;10441;50.884;12.064;2022-11-21T04:57:00;2.10;99.90
20566;DHT22;10441;50.884;12.064;2022-11-21T04:59:27;2.10;99.90
20566;DHT22;10441;50.884;12.064;2022-11-21T05:01:56;2.00;99.90
20566;DHT22;10441;50.884;12.064;2022-11-21T05:04:27;2.00;99.90
20566;DHT22;10441;50.884;12.064;2022-11-21T05:06:53;2.00;99.90
20566;DHT22;10441;50.884;12.064;2022-11-21T05:09:20;1.90;99.90
20566;DHT22;10441;50.884;12.064;2022-11-21T05:11:47;1.90;99.90
20566;DHT22;10441;50.884;12.064;2022-11-21T05:14:31;1.80;99.90
20566;DHT22;10441;50.884;12.064;2022-11-21T05:16:58;1.80;99.90
20566;DHT22;10441;50.884;12.064;2022-11-21T05:19:24;1.80;99.90
20566;DHT22;10441;50.884;12.064;2022-11-21T05:21:53;1.60;99.90
20566;DHT22;10441;50.884;12.064;2022-11-21T05:24:20;1.50;99.90
20566;DHT22;10441;50.884;12.064;2022-11-21T05:26:46;1.50;99.90
20566;DHT22;10441;50.884;12.064;2022-11-21T05:29:13;1.40;99.90
20566;DHT22;10441;50.884;12.064;2022-11-21T05:31:40;1.40;99.90
20566;DHT22;10441;50.884;12.064;2022-11-21T05:34:07;1.30;99.90
20566;DHT22;10441;50.884;12.064;2022-11-21T05:36:34;1.20;99.90
20566;DHT22;10441;50.884;12.064;2022-11-21T05:39:02;1.30;99.90
20566;DHT22;10441;50.884;12.064;2022-11-21T05:41:29;1.10;99.90
20566;DHT22;10441;50.884;12.064;2022-11-21T05:43:56;1.00;99.90
20566;DHT22;10441;50.884;12.064;2022-11-21T05:46:23;0.80;99.90
20566;DHT22;10441;50.884;12.064;2022-11-21T05:48:50;0.60;99.90
20566;DHT22;10441;50.884;12.064;2022-11-21T05:51:18;0.70;99.90
20566;DHT22;10441;50.884;12.064;2022-11-21T05:53:45;0.60;99.90
20566;DHT22;10441;50.884;12.064;2022-11-21T05:56:13;0.50;99.90
20566;DHT22;10441;50.884;12.064;2022-11-21T05:58:41;0.50;99.90
20566;DHT22;10441;50.884;12.064;2022-11-21T06:01:08;0.50;99.90
20566;DHT22;10441;50.884;12.064;2022-11-21T06:03:37;0.50;99.90
20566;DHT22;10441;50.884;12.064;2022-11-21T06:06:03;0.50;99.90
20566;DHT22;10441;50.884;12.064;2022-11-21T06:08:31;0.50;99.90
20566;DHT22;10441;50.884;12.064;2022-11-21T06:10:59;0.50;99.90
20566;DHT22;10441;50.884;12.064;2022-11-21T06:13:27;0.50;99.90
20566;DHT22;10441;50.884;12.064;2022-11-21T06:15:57;0.50;99.90
20566;DHT22;10441;50.884;12.064;2022-11-21T06:18:24;0.50;99.90
20566;DHT22;10441;50.884;12.064;2022-11-21T06:20:51;0.50;99.90
20566;DHT22;10441;50.884;12.064;2022-11-21T06:23:18;0.50;99.90
20566;DHT22;10441;50.884;12.064;2022-11-21T06:25:45;0.50;1.00
20566;DHT22;10441;50.884;12.064;2022-11-21T06:28:12;0.40;1.00
20566;DHT22;10441;50.884;12.064;2022-11-21T06:30:40;0.40;1.40
20566;DHT22;10441;50.884;12.064;2022-11-21T06:33:07;0.40;11.10
20566;DHT22;10441;50.884;12.064;2022-11-21T06:35:36;0.40;21.10
20566;DHT22;10441;50.884;12.064;2022-11-21T06:38:03;0.40;21.20
20566;DHT22;10441;50.884;12.064;2022-11-21T06:40:31;0.40;21.90
20566;DHT22;10441;50.884;12.064;2022-11-21T06:42:59;0.40;25.80
20566;DHT22;10441;50.884;12.064;2022-11-21T06:45:27;0.40;23.80
20566;DHT22;10441;50.884;12.064;2022-11-21T06:47:55;0.40;26.20
20566;DHT22;10441;50.884;12.064;2022-11-21T06:50:23;0.40;24.60
20566;DHT22;10441;50.884;12.064;2022-11-21T06:52:51;0.40;22.30
20566;DHT22;10441;50.884;12.064;2022-11-21T06:55:19;0.40;22.70
20566;DHT22;10441;50.884;12.064;2022-11-21T06:57:48;0.40;18.30
20566;DHT22;10441;50.884;12.064;2022-11-21T07:00:16;0.40;11.80
20566;DHT22;10441;50.884;12.064;2022-11-21T07:02:44;0.40;99.90
20566;DHT22;10441;50.884;12.064;2022-11-21T07:05:16;0.50;13.80
20566;DHT22;10441;50.884;12.064;2022-11-21T07:07:44;0.50;99.90
20566;DHT22;10441;50.884;12.064;2022-11-21T07:10:11;0.40;99.90
20566;DHT22;10441;50.884;12.064;2022-11-21T07:12:39;0.50;99.90
20566;DHT22;10441;50.884;12.064;2022-11-21T07:15:23;0.50;99.90
20566;DHT22;10441;50.884;12.064;2022-11-21T07:17:49;0.50;99.90
20566;DHT22;10441;50.884;12.064;2022-11-21T07:20:18;0.50;99.90
20566;DHT22;10441;50.884;12.064;2022-11-21T07:22:44;0.50;99.90
20566;DHT22;10441;50.884;12.064;2022-11-21T07:25:11;0.50;99.90
20566;DHT22;10441;50.884;12.064;2022-11-21T07:27:38;0.50;99.90
20566;DHT22;10441;50.884;12.064;2022-11-21T07:30:05;0.50;99.90
20566;DHT22;10441;50.884;12.064;2022-11-21T07:32:32;0.50;99.90
20566;DHT22;10441;50.884;12.064;2022-11-21T07:34:59;0.50;99.90
20566;DHT22;10441;50.884;12.064;2022-11-21T07:37:28;0.60;99.90
20566;DHT22;10441;50.884;12.064;2022-11-21T07:39:55;0.50;99.90
20566;DHT22;10441;50.884;12.064;2022-11-21T07:42:21;0.50;99.90
20566;DHT22;10441;50.884;12.064;2022-11-21T07:44:48;0.50;99.90
20566;DHT22;10441;50.884;12.064;2022-11-21T07:47:15;0.50;99.90
20566;DHT22;10441;50.884;12.064;2022-11-21T07:49:42;0.50;99.90
20566;DHT22;10441;50.884;12.064;2022-11-21T07:52:09;0.50;99.90
20566;DHT22;10441;50.884;12.064;2022-11-21T07:54:37;0.50;99.90
20566;DHT22;10441;50.884;12.064;2022-11-21T07:57:03;0.60;99.90
20566;DHT22;10441;50.884;12.064;2022-11-21T07:59:31;0.50;99.90
20566;DHT22;10441;50.884;12.064;2022-11-21T08:01:58;0.50;99.90
20566;DHT22;10441;50.884;12.064;2022-11-21T08:04:24;0.50;99.90
20566;DHT22;10441;50.884;12.064;2022-11-21T08:06:52;0.50;99.90
20566;DHT22;10441;50.884;12.064;2022-11-21T08:09:18;0.50;99.90
20566;DHT22;10441;50.884;12.064;2022-11-21T08:11:46;0.50;99.90
20566;DHT22;10441;50.884;12.064;2022-11-21T08:14:14;0.50;99.90
20566;DHT22;10441;50.884;12.064;2022-11-21T08:16:42;0.50;99.90
20566;DHT22;10441;50.884;12.064;2022-11-21T08:19:10;0.50;99.90
20566;DHT22;10441;50.884;12.064;2022-11-21T08:21:38;0.40;99.90
20566;DHT22;10441;50.884;12.064;2022-11-21T08:24:06;0.50;99.90
20566;DHT22;10441;50.884;12.064;2022-11-21T08:26:38;0.50;99.90
20566;DHT22;10441;50.884;12.064;2022-11-21T08:29:08;0.30;99.90
20566;DHT22;10441;50.884;12.064;2022-11-21T08:31:35;0.20;99.90
20566;DHT22;10441;50.884;12.064;2022-11-21T08:34:03;0.40;99.90
20566;DHT22;10441;50.884;12.064;2022-11-21T08:36:31;0.30;99.90
20566;DHT22;10441;50.884;12.064;2022-11-21T08:38:59;0.40;99.90
20566;DHT22;10441;50.884;12.064;2022-11-21T08:41:26;0.30;99.90
20566;DHT22;10441;50.884;12.064;2022-11-21T08:44:13;0.30;99.90
20566;DHT22;10441;50.884;12.064;2022-11-21T08:46:41;0.50;99.90
20566;DHT22;10441;50.884;12.064;2022-11-21T08:49:09;0.50;99.90
20566;DHT22;10441;50.884;12.064;2022-11-21T08:51:37;0.60;99.90
20566;DHT22;10441;50.884;12.064;2022-11-21T08:54:08;0.70;99.90
20566;DHT22;10441;50.884;12.064;2022-11-21T08:56:36;0.70;99.90
20566;DHT22;10441;50.884;12.064;2022-11-21T08:59:04;0.60;99.90
20566;DHT22;10441;50.884;12.064;2022-11-21T09:01:33;0.50;99.90
20566;DHT22;10441;50.884;12.064;2022-11-21T09:04:01;0.70;99.90
20566;DHT22;10441;50.884;12.064;2022-11-21T09:06:29;0.70;99.90
20566;DHT22;10441;50.884;12.064;2022-11-21T09:08:57;0.60;99.90
20566;DHT22;10441;50.884;12.064;2022-11-21T09:11:25;0.60;99.90
20566;DHT22;10441;50.884;12.064;2022-11-21T09:13:52;0.50;99.90
20566;DHT22;10441;50.884;12.064;2022-11-21T09:16:38;0.40;99.90
20566;DHT22;10441;50.884;12.064;2022-11-21T09:19:23;0.50;99.90
20566;DHT22;10441;50.884;12.064;2022-11-21T09:21:49;0.60;99.90
20566;DHT22;10441;50.884;12.064;2022-11-21T09:24:17;0.70;99.90
20566;DHT22;10441;50.884;12.064;2022-11-21T09:59:50;1.30;99.90
20566;DHT22;10441;50.884;12.064;2022-11-21T10:02:18;1.10;99.90
20566;DHT22;10441;50.884;12.064;2022-11-21T10:04:47;1.30;99.90
20566;DHT22;10441;50.884;12.064;2022-11-21T10:07:15;1.80;99.90
20566;DHT22;10441;50.884;12.064;2022-11-21T10:09:46;1.80;99.90
20566;DHT22;10441;50.884;12.064;2022-11-21T10:12:19;2.10;99.90
20566;DHT22;10441;50.884;12.064;2022-11-21T10:15:18;2.00;99.90
20566;DHT22;10441;50.884;12.064;2022-11-21T10:17:53;2.50;99.90
20566;DHT22;10441;50.884;12.064;2022-11-21T10:20:29;2.70;99.90
20566;DHT22;10441;50.884;12.064;2022-11-21T10:23:02;2.20;99.90
20566;DHT22;10441;50.884;12.064;2022-11-21T10:25:31;1.70;99.90
20566;DHT22;10441;50.884;12.064;2022-11-21T10:28:03;2.00;99.90
20566;DHT22;10441;50.884;12.064;2022-11-21T10:30:32;2.00;99.90
20566;DHT22;10441;50.884;12.064;2022-11-21T10:33:00;2.30;99.90
20566;DHT22;10441;50.884;12.064;2022-11-21T10:35:28;2.50;99.90
20566;DHT22;10441;50.884;12.064;2022-11-21T10:37:57;2.30;99.90
20566;DHT22;10441;50.884;12.064;2022-11-21T10:40:33;2.10;99.90
20566;DHT22;10441;50.884;12.064;2022-11-21T10:43:02;2.00;99.90
20566;DHT22;10441;50.884;12.064;2022-11-21T10:45:52;2.30;99.90
20566;DHT22;10441;50.884;12.064;2022-11-21T10:48:18;2.40;99.90
20566;DHT22;10441;50.884;12.064;2022-11-21T11:43:40;2.40;99.90
20566;DHT22;10441;50.884;12.064;2022-11-21T11:46:33;2.40;99.90
20566;DHT22;10441;50.884;12.064;2022-11-21T11:49:22;2.90;99.90
20566;DHT22;10441;50.884;12.064;2022-11-21T11:51:53;2.60;99.90
20566;DHT22;10441;50.884;12.064;2022-11-21T11:54:21;2.30;99.90
20566;DHT22;10441;50.884;12.064;2022-11-21T11:56:49;2.80;99.90
20566;DHT22;10441;50.884;12.064;2022-11-21T11:59:19;2.70;99.90
20566;DHT22;10441;50.884;12.064;2022-11-21T12:01:47;2.80;99.90
20566;DHT22;10441;50.884;12.064;2022-11-21T12:04:17;2.80;99.90
20566;DHT22;10441;50.884;12.064;2022-11-21T12:06:46;2.90;99.90
20566;DHT22;10441;50.884;12.064;2022-11-21T12:09:15;2.90;99.90
20566;DHT22;10441;50.884;12.064;2022-11-21T12:11:49;2.80;99.90
20566;DHT22;10441;50.884;12.064;2022-11-21T12:14:45;2.80;99.90
20566;DHT22;10441;50.884;12.064;2022-11-21T12:17:34;2.90;99.90
20566;DHT22;10441;50.884;12.064;2022-11-21T12:20:03;2.90;99.90
20566;DHT22;10441;50.884;12.064;2022-11-21T12:22:30;3.20;99.90
20566;DHT22;10441;50.884;12.064;2022-11-21T12:24:57;2.40;99.90
20566;DHT22;10441;50.884;12.064;2022-11-21T12:27:26;2.40;99.90
20566;DHT22;10441;50.884;12.064;2022-11-21T12:32:47;2.30;99.90
20566;DHT22;10441;50.884;12.064;2022-11-21T12:35:25;2.20;99.90
20566;DHT22;10441;50.884;12.064;2022-11-21T12:37:56;2.40;99.90
20566;DHT22;10441;50.884;12.064;2022-11-21T12:40:30;2.70;99.90
20566;DHT22;10441;50.884;12.064;2022-11-21T12:43:05;2.60;99.90
20566;DHT22;10441;50.884;12.064;2022-11-21T13:19:41;2.90;99.90
20566;DHT22;10441;50.884;12.064;2022-11-21T13:24:56;2.50;99.90
20566;DHT22;10441;50.884;12.064;2022-11-21T13:27:27;2.70;99.90
20566;DHT22;10441;50.884;12.064;2022-11-21T13:32:41;2.90;99.90
20566;DHT22;10441;50.884;12.064;2022-11-21T13:38:01;2.70;99.90
20566;DHT22;10441;50.884;12.064;2022-11-21T13:40:34;2.70;99.90
20566;DHT22;10441;50.884;12.064;2022-11-21T13:43:22;2.50;99.90
20566;DHT22;10441;50.884;12.064;2022-11-21T13:45:49;2.60;99.90
20566;DHT22;10441;50.884;12.064;2022-11-21T13:54:15;2.70;99.90
20566;DHT22;10441;50.884;12.064;2022-11-21T13:56:54;2.60;99.90
20566;DHT22;10441;50.884;12.064;2022-11-21T13:59:28;2.70;99.90
20566;DHT22;10441;50.884;12.064;2022-11-21T14:02:06;2.80;99.90
20566;DHT22;10441;50.884;12.064;2022-11-21T14:07:25;2.50;99.90
20566;DHT22;10441;50.884;12.064;2022-11-21T14:09:55;2.70;99.90
20566;DHT22;10441;50.884;12.064;2022-11-21T14:12:23;2.70;99.90
20566;DHT22;10441;50.884;12.064;2022-11-21T14:15:06;2.90;99.90
20566;DHT22;10441;50.884;12.064;2022-11-21T14:17:35;3.10;99.90
20566;DHT22;10441;50.884;12.064;2022-11-21T16:52:11;0.40;99.90
20566;DHT22;10441;50.884;12.064;2022-11-21T16:54:37;0.40;99.90
20566;DHT22;10441;50.884;12.064;2022-11-21T16:57:05;0.30;99.90
20566;DHT22;10441;50.884;12.064;2022-11-21T16:59:34;0.30;99.90
20566;DHT22;10441;50.884;12.064;2022-11-21T17:02:01;0.40;99.90
20566;DHT22;10441;50.884;12.064;2022-11-21T17:04:29;0.40;99.90
20566;DHT22;10441;50.884;12.064;2022-11-21T17:06:56;0.40;99.90
20566;DHT22;10441;50.884;12.064;2022-11-21T17:09:25;0.30;99.90
20566;DHT22;10441;50.884;12.064;2022-11-21T17:11:55;0.30;99.90
20566;DHT22;10441;50.884;12.064;2022-11-21T17:14:22;0.30;99.90
20566;DHT22;10441;50.884;12.064;2022-11-21T17:16:48;0.20;99.90
20566;DHT22;10441;50.884;12.064;2022-11-21T17:19:17;0.20;99.90
20566;DHT22;10441;50.884;12.064;2022-11-21T17:21:44;0.10;99.90
20566;DHT22;10441;50.884;12.064;2022-11-21T17:24:11;0.00;99.90
20566;DHT22;10441;50.884;12.064;2022-11-21T17:26:39;-0.10;99.90
20566;DHT22;10441;50.884;12.064;2022-11-21T17:29:06;0.00;99.90
20566;DHT22;10441;50.884;12.064;2022-11-21T17:31:33;0.10;32.00
20566;DHT22;10441;50.884;12.064;2022-11-21T17:33:59;0.00;31.30
20566;DHT22;10441;50.884;12.064;2022-11-21T17:36:27;0.00;71.10
20566;DHT22;10441;50.884;12.064;2022-11-21T17:38:53;0.00;94.80
20566;DHT22;10441;50.884;12.064;2022-11-21T17:41:21;0.00;99.90
20566;DHT22;10441;50.884;12.064;2022-11-21T17:43:53;0.00;99.90
20566;DHT22;10441;50.884;12.064;2022-11-21T17:46:20;-0.10;99.90
20566;DHT22;10441;50.884;12.064;2022-11-21T17:48:51;-0.20;99.90
20566;DHT22;10441;50.884;12.064;2022-11-21T17:51:23;-0.30;99.90
20566;DHT22;10441;50.884;12.064;2022-11-21T17:53:52;-0.30;99.90
20566;DHT22;10441;50.884;12.064;2022-11-21T17:56:19;-0.30;99.90
20566;DHT22;10441;50.884;12.064;2022-11-21T17:58:46;-0.40;99.90
20566;DHT22;10441;50.884;12.064;2022-11-21T18:01:15;-0.40;99.90
20566;DHT22;10441;50.884;12.064;2022-11-21T18:03:44;-0.50;99.90
20566;DHT22;10441;50.884;12.064;2022-11-21T18:06:11;-0.50;99.90
20566;DHT22;10441;50.884;12.064;2022-11-21T18:08:39;-0.50;99.90
20566;DHT22;10441;50.884;12.064;2022-11-21T18:11:06;-0.40;99.90
20566;DHT22;10441;50.884;12.064;2022-11-21T18:13:34;-0.40;99.90
20566;DHT22;10441;50.884;12.064;2022-11-21T20:09:07;-0.70;99.90
20566;DHT22;10441;50.884;12.064;2022-11-21T20:11:34;-0.70;99.90
20566;DHT22;10441;50.884;12.064;2022-11-21T20:14:02;-0.80;99.90
20566;DHT22;10441;50.884;12.064;2022-11-21T20:16:29;-0.80;99.90
20566;DHT22;10441;50.884;12.064;2022-11-21T20:18:57;-1.00;99.90
20566;DHT22;10441;50.884;12.064;2022-11-21T20:21:24;-0.90;99.90
20566;DHT22;10441;50.884;12.064;2022-11-21T20:23:51;-0.90;99.90
20566;DHT22;10441;50.884;12.064;2022-11-21T20:26:22;-0.80;99.90
20566;DHT22;10441;50.884;12.064;2022-11-21T20:28:49;-0.70;99.90
20566;DHT22;10441;50.884;12.064;2022-11-21T20:31:16;-0.60;99.90
20566;DHT22;10441;50.884;12.064;2022-11-21T20:33:44;-0.70;99.90
20566;DHT22;10441;50.884;12.064;2022-11-21T20:36:11;-0.80;99.90
20566;DHT22;10441;50.884;12.064;2022-11-21T20:38:41;-0.90;99.90
20566;DHT22;10441;50.884;12.064;2022-11-21T20:41:08;-0.90;99.90
20566;DHT22;10441;50.884;12.064;2022-11-21T20:43:36;-1.00;99.90
20566;DHT22;10441;50.884;12.064;2022-11-21T20:46:03;-0.90;99.90
20566;DHT22;10441;50.884;12.064;2022-11-21T20:48:30;-0.90;99.90
20566;DHT22;10441;50.884;12.064;2022-11-21T20:50:58;-0.90;99.90
20566;DHT22;10441;50.884;12.064;2022-11-21T20:53:25;-1.10;99.90
20566;DHT22;10441;50.884;12.064;2022-11-21T20:55:57;-1.20;99.90
20566;DHT22;10441;50.884;12.064;2022-11-21T20:58:26;-1.10;99.90
20566;DHT22;10441;50.884;12.064;2022-11-21T21:00:54;-1.20;99.90
20566;DHT22;10441;50.884;12.064;2022-11-21T21:03:21;-1.30;99.90
20566;DHT22;10441;50.884;12.064;2022-11-21T21:05:47;-1.30;99.90
20566;DHT22;10441;50.884;12.064;2022-11-21T21:08:14;-1.40;99.90
20566;DHT22;10441;50.884;12.064;2022-11-21T23:12:04;-0.80;99.90
20566;DHT22;10441;50.884;12.064;2022-11-21T23:14:31;-0.70;99.90
20566;DHT22;10441;50.884;12.064;2022-11-21T23:16:58;-0.70;99.90
20566;DHT22;10441;50.884;12.064;2022-11-21T23:19:25;-0.80;99.90
20566;DHT22;10441;50.884;12.064;2022-11-21T23:21:51;-0.80;99.90
20566;DHT22;10441;50.884;12.064;2022-11-21T23:24:18;-0.80;99.90
20566;DHT22;10441;50.884;12.064;2022-11-21T23:26:45;-0.80;99.90
20566;DHT22;10441;50.884;12.064;2022-11-21T23:29:13;-0.70;99.90
20566;DHT22;10441;50.884;12.064;2022-11-21T23:31:40;-0.80;99.90
20566;DHT22;10441;50.884;12.064;2022-11-21T23:34:07;-0.70;99.90
20566;DHT22;10441;50.884;12.064;2022-11-21T23:36:35;-0.80;99.90
20566;DHT22;10441;50.884;12.064;2022-11-21T23:39:02;-0.70;99.90
20566;DHT22;10441;50.884;12.064;2022-11-21T23:41:29;-0.70;99.90
20566;DHT22;10441;50.884;12.064;2022-11-21T23:43:56;-0.60;99.90
20566;DHT22;10441;50.884;12.064;2022-11-21T23:46:25;-0.40;99.90
20566;DHT22;10441;50.884;12.064;2022-11-21T23:48:52;-0.30;99.90
20566;DHT22;10441;50.884;12.064;2022-11-21T23:51:19;-0.40;99.90
20566;DHT22;10441;50.884;12.064;2022-11-21T23:53:45;-0.30;99.90
20566;DHT22;10441;50.884;12.064;2022-11-21T23:56:12;-0.40;99.90
20566;DHT22;10441;50.884;12.064;2022-11-21T23:58:39;-0.50;99.90
